createdAt,value
2019-01-30T00:00:40.046Z,2.60
2019-01-30T00:05:45.506Z,2.30
2019-01-30T00:10:50.899Z,2.57
2019-01-30T00:15:56.852Z,2.40
2019-01-30T00:21:02.331Z,2.33
2019-01-30T00:26:07.720Z,2.70
2019-01-30T00:31:13.111Z,2.67
2019-01-30T00:36:18.583Z,2.23
2019-01-30T00:41:24.042Z,2.47
2019-01-30T00:46:29.429Z,2.80
2019-01-30T00:51:34.819Z,2.50
2019-01-30T00:56:40.214Z,2.80
2019-01-30T01:01:45.603Z,2.40
2019-01-30T01:06:50.980Z,2.20
2019-01-30T01:11:56.368Z,2.40
2019-01-30T01:17:01.756Z,2.33
2019-01-30T01:22:07.162Z,2.37
2019-01-30T01:27:12.538Z,2.07
2019-01-30T01:32:17.934Z,2.07
2019-01-30T01:37:23.323Z,2.00
2019-01-30T01:42:28.730Z,2.80
2019-01-30T01:47:34.218Z,2.80
2019-01-30T01:52:39.608Z,2.03
2019-01-30T01:57:45.217Z,2.07
2019-01-30T02:02:50.674Z,1.83
2019-01-30T02:07:56.061Z,1.60
2019-01-30T02:13:01.447Z,1.70
2019-01-30T02:18:08.594Z,2.30
2019-01-30T02:23:14.055Z,2.23
2019-01-30T02:28:19.442Z,1.83
2019-01-30T02:33:24.837Z,1.90
2019-01-30T02:38:30.225Z,1.40
2019-01-30T02:43:35.609Z,1.30
2019-01-30T02:48:41.008Z,1.87
2019-01-30T02:53:46.390Z,1.40
2019-01-30T02:58:51.919Z,2.00
2019-01-30T03:03:57.307Z,1.53
2019-01-30T03:09:02.696Z,1.50
2019-01-30T03:14:09.705Z,1.87
2019-01-30T03:19:15.094Z,1.87
2019-01-30T03:24:20.486Z,1.07
2019-01-30T03:29:25.904Z,1.30
2019-01-30T03:34:31.264Z,2.07
2019-01-30T03:39:36.651Z,1.73
2019-01-30T03:44:42.070Z,1.77
2019-01-30T03:49:47.456Z,1.67
2019-01-30T03:54:52.847Z,0.83
2019-01-30T03:59:58.301Z,1.13
2019-01-30T04:05:06.541Z,1.60
2019-01-30T04:10:16.901Z,1.83
2019-01-30T04:15:22.868Z,1.03
2019-01-30T04:20:47.563Z,1.37
2019-01-30T04:25:52.958Z,1.30
2019-01-30T04:30:58.350Z,1.20
2019-01-30T04:36:03.904Z,1.53
2019-01-30T04:41:09.292Z,1.43
2019-01-30T04:46:14.679Z,1.27
2019-01-30T04:51:20.071Z,1.50
2019-01-30T04:56:25.461Z,1.20
2019-01-30T05:01:30.916Z,1.30
2019-01-30T05:06:36.302Z,1.63
2019-01-30T05:11:41.694Z,1.07
2019-01-30T05:16:47.085Z,1.37
2019-01-30T05:21:52.531Z,1.37
2019-01-30T05:26:57.922Z,0.80
2019-01-30T05:32:03.314Z,1.30
2019-01-30T05:37:08.698Z,1.30
2019-01-30T05:42:14.082Z,1.40
2019-01-30T05:47:19.520Z,1.97
2019-01-30T05:52:24.868Z,1.10
2019-01-30T05:57:30.260Z,1.57
2019-01-30T06:02:35.653Z,2.10
2019-01-30T06:07:41.046Z,1.90
2019-01-30T06:12:46.501Z,1.67
2019-01-30T06:17:51.886Z,1.03
2019-01-30T06:22:58.291Z,2.20
2019-01-30T06:28:03.959Z,1.30
2019-01-30T06:33:09.307Z,1.53
2019-01-30T06:38:14.686Z,1.10
2019-01-30T06:43:20.077Z,0.90
2019-01-30T06:48:25.466Z,0.77
2019-01-30T06:53:30.849Z,1.73
2019-01-30T06:58:36.243Z,0.93
2019-01-30T07:03:41.711Z,1.13
2019-01-30T07:08:47.098Z,1.43
2019-01-30T07:13:52.481Z,0.67
2019-01-30T07:18:57.865Z,0.90
2019-01-30T07:24:03.319Z,0.90
2019-01-30T07:29:08.783Z,0.70
2019-01-30T07:34:14.187Z,0.97
2019-01-30T07:39:19.577Z,4.57
2019-01-30T07:44:24.961Z,1.20
2019-01-30T07:49:30.440Z,1.77
2019-01-30T07:54:35.784Z,1.57
2019-01-30T07:59:41.223Z,2.60
2019-01-30T08:04:46.613Z,2.93
2019-01-30T08:09:52.066Z,6.77
2019-01-30T08:14:57.454Z,1.10
2019-01-30T08:20:02.863Z,1.57
2019-01-30T08:25:12.792Z,3.50
2019-01-30T08:30:27.952Z,0.90
2019-01-30T08:35:34.024Z,0.97
2019-01-30T08:40:39.483Z,2.10
2019-01-30T08:45:45.141Z,0.60
2019-01-30T08:50:50.533Z,1.33
2019-01-30T08:55:56.014Z,2.03
2019-01-30T09:01:01.396Z,0.83
2019-01-30T09:06:06.799Z,1.07
2019-01-30T09:11:12.256Z,2.47
2019-01-30T09:16:17.920Z,0.87
2019-01-30T09:21:23.316Z,3.07
2019-01-30T09:26:28.733Z,1.17
2019-01-30T09:31:34.141Z,0.50
2019-01-30T09:36:39.672Z,0.77
2019-01-30T09:41:45.071Z,1.63
2019-01-30T09:46:50.463Z,1.30
2019-01-30T09:51:55.873Z,1.83
2019-01-30T09:57:01.297Z,42.93
2019-01-30T10:02:06.777Z,32.23
2019-01-30T10:07:12.254Z,26.03
2019-01-30T10:12:18.656Z,20.63
2019-01-30T10:17:24.082Z,18.13
2019-01-30T10:22:29.595Z,16.17
2019-01-30T10:27:35.002Z,15.93
2019-01-30T10:32:40.968Z,13.50
2019-01-30T10:37:47.987Z,11.03
2019-01-30T10:42:57.123Z,11.27
2019-01-30T10:48:01.703Z,8.40
2019-01-30T10:53:07.188Z,10.97
2019-01-30T10:58:15.905Z,7.43
2019-01-30T11:03:21.393Z,6.27
2019-01-30T11:08:26.863Z,6.77
2019-01-30T11:13:32.272Z,5.03
2019-01-30T11:18:37.714Z,5.43
2019-01-30T11:23:43.130Z,5.20
2019-01-30T11:28:48.530Z,4.80
2019-01-30T11:33:54.202Z,4.00
2019-01-30T11:38:59.638Z,24.37
2019-01-30T11:44:05.127Z,21.00
2019-01-30T11:49:10.557Z,16.10
2019-01-30T11:54:16.043Z,15.63
2019-01-30T11:59:21.529Z,21.10
2019-01-30T12:04:26.953Z,12.60
2019-01-30T12:09:32.743Z,12.07
2019-01-30T12:14:38.199Z,11.03
2019-01-30T12:19:43.597Z,11.90
2019-01-30T12:24:49.020Z,10.07
2019-01-30T12:29:54.465Z,7.00
2019-01-30T12:34:59.899Z,9.23
2019-01-30T12:40:10.292Z,7.57
2019-01-30T12:45:31.278Z,7.73
2019-01-30T12:50:36.859Z,6.33
2019-01-30T12:55:42.571Z,7.37
2019-01-30T13:00:50.595Z,6.47
2019-01-30T13:05:55.985Z,4.60
2019-01-30T13:11:01.380Z,4.67
2019-01-30T13:16:06.842Z,4.30
2019-01-30T13:21:12.237Z,5.60
2019-01-30T13:26:17.754Z,3.20
2019-01-30T13:31:23.110Z,4.83
2019-01-30T13:36:28.508Z,4.87
2019-01-30T13:41:33.901Z,4.13
2019-01-30T13:46:39.294Z,3.00
2019-01-30T13:51:44.859Z,3.17
2019-01-30T13:56:50.273Z,4.70
2019-01-30T14:01:55.689Z,5.20
2019-01-30T14:07:01.070Z,2.90
2019-01-30T14:12:06.542Z,3.87
2019-01-30T14:17:11.913Z,3.53
2019-01-30T14:22:17.400Z,3.63
2019-01-30T14:27:22.787Z,2.23
2019-01-30T14:32:28.160Z,2.67
2019-01-30T14:37:33.593Z,1.80
2019-01-30T14:42:38.989Z,4.13
2019-01-30T14:47:44.761Z,1.80
2019-01-30T14:52:50.168Z,1.87
2019-01-30T14:57:56.118Z,2.17
2019-01-30T15:03:01.687Z,2.70
2019-01-30T15:08:07.229Z,2.83
2019-01-30T15:13:12.698Z,3.23
2019-01-30T15:18:18.090Z,2.70
2019-01-30T15:23:23.478Z,1.40
2019-01-30T15:28:28.876Z,1.80
2019-01-30T15:33:34.269Z,2.37
2019-01-30T15:38:41.184Z,2.03
2019-01-30T15:43:46.604Z,1.77
2019-01-30T15:48:52.914Z,2.80
2019-01-30T15:53:58.325Z,1.80
2019-01-30T15:59:03.789Z,1.37
2019-01-30T16:04:10.391Z,2.13
2019-01-30T16:09:15.951Z,1.30
2019-01-30T16:14:21.341Z,2.03
2019-01-30T16:19:26.741Z,2.17
2019-01-30T16:24:32.135Z,3.03
2019-01-30T16:29:37.522Z,2.23
2019-01-30T16:34:42.911Z,1.90
2019-01-30T16:39:48.312Z,1.40
2019-01-30T16:44:53.736Z,2.10
2019-01-30T16:49:59.195Z,1.93
2019-01-30T16:55:06.732Z,2.00
2019-01-30T17:00:31.756Z,1.50
2019-01-30T17:05:37.338Z,2.83
2019-01-30T17:10:43.336Z,1.50
2019-01-30T17:15:48.714Z,5.00
2019-01-30T17:20:54.185Z,1.17
2019-01-30T17:25:59.587Z,1.93
2019-01-30T17:31:06.789Z,1.57
2019-01-30T17:36:18.751Z,2.63
2019-01-30T17:41:19.268Z,3.60
2019-01-30T17:46:24.681Z,2.47
2019-01-30T17:51:30.228Z,1.10
2019-01-30T17:56:35.628Z,2.27
2019-01-30T18:01:41.096Z,1.43
2019-01-30T18:06:46.657Z,1.37
2019-01-30T18:11:52.124Z,2.23
2019-01-30T18:16:57.583Z,1.20
2019-01-30T18:22:02.984Z,3.00
2019-01-30T18:27:08.399Z,0.67
2019-01-30T18:32:13.779Z,2.83
2019-01-30T18:37:19.237Z,1.27
2019-01-30T18:42:24.626Z,1.37
2019-01-30T18:47:30.157Z,0.93
2019-01-30T18:52:35.551Z,3.60
2019-01-30T18:57:40.965Z,1.23
2019-01-30T19:02:46.370Z,1.67
2019-01-30T19:07:51.746Z,2.80
2019-01-30T19:12:57.197Z,1.73
2019-01-30T19:18:02.640Z,2.00
2019-01-30T19:23:08.181Z,0.97
2019-01-30T19:28:16.250Z,0.47
2019-01-30T19:33:20.824Z,1.17
2019-01-30T19:38:26.218Z,0.90
2019-01-30T19:43:33.151Z,1.10
2019-01-30T19:48:38.541Z,1.00
2019-01-30T19:53:44.026Z,1.50
2019-01-30T19:58:49.473Z,1.30
2019-01-30T20:03:54.873Z,2.60
2019-01-30T20:09:00.257Z,1.70
2019-01-30T20:14:06.028Z,0.93
2019-01-30T20:19:11.541Z,1.60
2019-01-30T20:24:17.066Z,2.87
2019-01-30T20:29:22.418Z,1.37
2019-01-30T20:34:27.852Z,1.20
2019-01-30T20:39:33.272Z,0.83
2019-01-30T20:44:38.653Z,1.90
2019-01-30T20:49:44.036Z,1.07
2019-01-30T20:54:59.454Z,1.50
2019-01-30T20:59:56.513Z,0.97
2019-01-30T21:05:01.913Z,1.67
2019-01-30T21:10:12.348Z,1.77
2019-01-30T21:15:18.259Z,1.40
2019-01-30T21:20:23.665Z,1.30
2019-01-30T21:25:29.118Z,1.13
2019-01-30T21:30:37.729Z,1.50
2019-01-30T21:35:43.113Z,1.43
2019-01-30T21:40:48.519Z,1.37
2019-01-30T21:45:54.001Z,1.00
2019-01-30T21:50:59.393Z,1.47
2019-01-30T21:56:05.015Z,0.83
2019-01-30T22:01:10.398Z,1.30
2019-01-30T22:06:15.807Z,1.77
2019-01-30T22:11:21.264Z,1.10
2019-01-30T22:16:26.655Z,1.47
2019-01-30T22:21:32.062Z,1.43
2019-01-30T22:26:37.638Z,1.50
2019-01-30T22:31:43.056Z,1.10
2019-01-30T22:36:49.525Z,0.80
2019-01-30T22:41:54.909Z,1.47
2019-01-30T22:47:00.424Z,1.70
2019-01-30T22:52:06.208Z,1.00
2019-01-30T22:57:11.612Z,1.10
2019-01-30T23:02:17.396Z,1.20
2019-01-30T23:07:30.027Z,0.70
2019-01-30T23:13:07.298Z,2.23
2019-01-30T23:18:41.428Z,1.57
2019-01-30T23:24:14.131Z,3.50
2019-01-30T23:29:24.139Z,2.40
2019-01-30T23:35:02.548Z,1.43
2019-01-30T23:40:21.157Z,2.27
2019-01-30T23:45:43.008Z,1.33
2019-01-30T23:50:53.015Z,1.77
2019-01-30T23:56:17.895Z,0.90
